createdAt,value
2023-01-13T00:00:03.285Z,2.53
2023-01-13T00:02:38.854Z,2.51
2023-01-13T00:05:06.318Z,2.49
2023-01-13T00:07:33.140Z,2.43
2023-01-13T00:09:59.999Z,2.46
2023-01-13T00:12:26.995Z,2.44
2023-01-13T00:14:53.984Z,2.46
2023-01-13T00:17:20.822Z,2.47
2023-01-13T00:19:50.115Z,2.50
2023-01-13T00:22:17.142Z,2.52
2023-01-13T00:24:44.009Z,2.51
2023-01-13T00:27:13.106Z,2.50
2023-01-13T00:29:39.973Z,2.50
2023-01-13T00:32:06.900Z,2.52
2023-01-13T00:34:33.849Z,2.50
2023-01-13T00:37:00.768Z,2.45
2023-01-13T00:39:27.759Z,2.44
2023-01-13T00:42:13.162Z,2.50
2023-01-13T00:44:39.974Z,2.51
2023-01-13T00:47:06.873Z,2.48
2023-01-13T00:49:33.750Z,2.57
2023-01-13T00:52:00.589Z,2.68
2023-01-13T00:54:27.364Z,2.74
2023-01-13T00:56:54.230Z,2.75
2023-01-13T00:59:21.110Z,2.72
2023-01-13T01:01:48.150Z,2.67
2023-01-13T01:04:15.162Z,2.60
2023-01-13T01:06:42.130Z,2.56
2023-01-13T01:09:20.988Z,2.61
2023-01-13T01:11:47.854Z,2.56
2023-01-13T01:14:14.902Z,2.56
2023-01-13T01:16:42.002Z,2.62
2023-01-13T01:19:10.101Z,2.67
2023-01-13T01:21:37.126Z,2.63
2023-01-13T01:24:04.581Z,2.64
2023-01-13T01:26:32.254Z,2.70
2023-01-13T01:28:59.747Z,2.69
2023-01-13T01:31:31.360Z,2.70
2023-01-13T01:33:58.643Z,2.72
2023-01-13T01:36:27.052Z,2.70
2023-01-13T01:38:56.707Z,2.70
2023-01-13T01:41:25.860Z,2.70
2023-01-13T01:43:59.960Z,2.76
2023-01-13T01:46:38.447Z,2.67
2023-01-13T01:49:14.398Z,2.64
2023-01-13T01:51:50.812Z,2.65
2023-01-13T01:54:39.274Z,2.61
2023-01-13T01:57:08.646Z,2.66
2023-01-13T01:59:36.638Z,2.64
2023-01-13T02:02:08.259Z,2.64
2023-01-13T02:04:40.179Z,2.69
2023-01-13T02:07:09.521Z,2.66
2023-01-13T02:09:36.818Z,2.72
2023-01-13T02:12:22.228Z,2.78
2023-01-13T02:14:49.064Z,2.78
2023-01-13T02:17:19.567Z,2.73
2023-01-13T02:20:29.222Z,2.67
2023-01-13T02:23:05.075Z,2.70
2023-01-13T02:25:50.782Z,2.70
2023-01-13T02:28:30.112Z,2.65
2023-01-13T02:31:24.066Z,2.65
2023-01-13T02:34:00.091Z,2.76
2023-01-13T02:36:32.977Z,2.72
2023-01-13T02:39:49.326Z,2.77
2023-01-13T02:42:45.501Z,2.71
2023-01-13T02:45:38.074Z,2.70
2023-01-13T02:48:06.730Z,2.72
2023-01-13T02:50:39.985Z,2.72
2023-01-13T02:53:21.173Z,2.73
2023-01-13T02:55:51.219Z,2.80
2023-01-13T02:58:21.779Z,2.81
2023-01-13T03:00:49.603Z,2.83
2023-01-13T03:03:16.553Z,2.78
2023-01-13T03:05:45.418Z,2.78
2023-01-13T03:08:31.044Z,2.74
2023-01-13T03:11:06.444Z,2.83
2023-01-13T03:14:02.613Z,2.84
2023-01-13T03:16:54.488Z,2.91
2023-01-13T03:19:46.319Z,2.96
2023-01-13T03:22:25.596Z,2.97
2023-01-13T03:25:02.843Z,2.94
2023-01-13T03:27:38.514Z,2.97
2023-01-13T03:30:14.623Z,2.98
2023-01-13T03:32:53.529Z,2.99
2023-01-13T03:35:32.978Z,3.02
2023-01-13T03:38:06.932Z,2.90
2023-01-13T03:40:38.510Z,2.94
2023-01-13T03:43:30.005Z,2.97
2023-01-13T03:46:02.155Z,2.93
2023-01-13T03:48:31.591Z,2.91
2023-01-13T03:51:06.419Z,2.94
2023-01-13T03:53:40.113Z,2.97
2023-01-13T03:56:22.821Z,2.98
2023-01-13T03:58:51.055Z,3.02
2023-01-13T04:01:34.757Z,3.04
2023-01-13T04:04:29.235Z,2.98
2023-01-13T04:07:12.890Z,3.00
2023-01-13T04:09:55.922Z,3.00
2023-01-13T04:12:49.467Z,3.01
2023-01-13T04:15:18.118Z,3.06
2023-01-13T04:17:45.120Z,3.09
2023-01-13T04:20:12.438Z,3.09
2023-01-13T04:22:39.303Z,3.02
2023-01-13T04:25:06.781Z,2.99
2023-01-13T04:27:33.693Z,2.98
2023-01-13T04:30:00.717Z,3.01
2023-01-13T04:32:27.671Z,3.03
2023-01-13T04:34:54.662Z,3.09
2023-01-13T04:37:21.639Z,3.06
2023-01-13T04:39:48.644Z,3.05
2023-01-13T04:42:15.458Z,3.02
2023-01-13T04:44:45.031Z,3.01
2023-01-13T04:47:12.046Z,3.03
2023-01-13T04:49:38.979Z,3.10
2023-01-13T04:52:07.355Z,3.15
2023-01-13T04:54:34.478Z,3.12
2023-01-13T04:57:01.712Z,3.09
2023-01-13T04:59:30.668Z,3.04
2023-01-13T05:01:57.666Z,3.07
2023-01-13T05:04:24.657Z,3.08
2023-01-13T05:06:51.627Z,3.13
2023-01-13T05:09:18.702Z,3.15
2023-01-13T05:12:04.169Z,3.15
2023-01-13T05:14:49.691Z,3.19
2023-01-13T05:17:23.351Z,3.14
2023-01-13T05:19:50.561Z,3.14
2023-01-13T05:22:36.181Z,3.13
2023-01-13T05:25:25.611Z,3.14
2023-01-13T05:28:02.781Z,3.19
2023-01-13T05:30:34.561Z,3.18
2023-01-13T05:33:01.948Z,3.19
2023-01-13T05:35:31.339Z,3.20
2023-01-13T05:37:58.464Z,3.22
2023-01-13T05:40:43.893Z,3.25
2023-01-13T05:43:22.614Z,3.27
2023-01-13T05:46:01.665Z,3.30
2023-01-13T05:48:42.839Z,3.33
2023-01-13T05:51:15.168Z,3.34
2023-01-13T05:53:42.267Z,3.36
2023-01-13T05:56:10.333Z,3.36
2023-01-13T05:58:37.442Z,3.39
2023-01-13T06:01:06.773Z,3.38
2023-01-13T06:03:35.010Z,3.33
2023-01-13T06:06:04.088Z,3.30
2023-01-13T06:08:31.776Z,3.23
2023-01-13T06:10:58.728Z,3.27
2023-01-13T06:13:25.963Z,3.33
2023-01-13T06:15:57.825Z,3.21
2023-01-13T06:18:25.039Z,3.17
2023-01-13T06:20:52.015Z,3.20
2023-01-13T06:23:19.215Z,3.18
2023-01-13T06:26:13.183Z,3.19
2023-01-13T06:28:43.140Z,3.22
2023-01-13T06:31:10.985Z,3.24
2023-01-13T06:33:41.574Z,3.20
2023-01-13T06:36:18.478Z,3.17
2023-01-13T06:38:48.175Z,3.12
2023-01-13T06:41:15.423Z,3.04
2023-01-13T06:43:42.460Z,3.00
2023-01-13T06:46:09.420Z,2.92
2023-01-13T06:48:38.709Z,2.84
2023-01-13T06:51:05.844Z,2.87
2023-01-13T06:53:33.107Z,2.84
2023-01-13T06:56:00.132Z,2.90
2023-01-13T06:58:27.162Z,2.91
2023-01-13T07:00:54.305Z,2.88
2023-01-13T07:03:21.637Z,2.91
2023-01-13T07:05:54.225Z,2.93
2023-01-13T07:08:21.579Z,2.97
2023-01-13T07:10:48.476Z,2.97
2023-01-13T07:13:33.943Z,3.02
2023-01-13T07:16:03.471Z,3.12
2023-01-13T07:18:32.324Z,3.20
2023-01-13T07:21:01.340Z,3.22
2023-01-13T07:23:28.891Z,3.33
2023-01-13T07:25:56.906Z,3.34
2023-01-13T07:28:24.941Z,3.37
2023-01-13T07:30:52.190Z,3.37
2023-01-13T07:33:19.373Z,3.39
2023-01-13T07:35:46.711Z,3.42
2023-01-13T07:38:14.065Z,3.55
2023-01-13T07:40:41.388Z,3.54
2023-01-13T07:43:30.657Z,3.63
2023-01-13T07:46:01.333Z,3.70
2023-01-13T07:48:29.123Z,3.69
2023-01-13T07:50:56.309Z,3.79
2023-01-13T07:53:31.362Z,3.84
2023-01-13T07:55:59.221Z,4.01
2023-01-13T07:58:29.738Z,4.15
2023-01-13T08:00:56.847Z,4.30
2023-01-13T08:03:24.503Z,4.50
2023-01-13T08:05:51.652Z,4.63
2023-01-13T08:08:18.708Z,4.77
2023-01-13T08:10:49.227Z,4.80
2023-01-13T08:13:21.155Z,4.78
2023-01-13T08:16:09.102Z,4.87
2023-01-13T08:18:37.787Z,4.95
2023-01-13T08:21:06.951Z,5.04
2023-01-13T08:23:34.233Z,5.13
2023-01-13T08:26:08.281Z,5.13
2023-01-13T08:28:35.628Z,5.30
2023-01-13T08:31:05.849Z,5.38
2023-01-13T08:33:33.262Z,5.38
2023-01-13T08:36:07.066Z,5.60
2023-01-13T08:38:34.967Z,5.74
2023-01-13T08:41:02.647Z,5.89
2023-01-13T08:43:32.803Z,6.12
2023-01-13T08:46:05.071Z,6.33
2023-01-13T08:48:32.438Z,6.53
2023-01-13T08:51:22.218Z,6.83
2023-01-13T08:53:49.418Z,7.07
2023-01-13T08:56:17.189Z,7.47
2023-01-13T08:58:44.400Z,8.09
2023-01-13T09:01:14.540Z,8.52
2023-01-13T09:03:42.118Z,9.12
2023-01-13T09:06:09.132Z,9.20
2023-01-13T09:08:36.042Z,9.27
2023-01-13T09:11:23.049Z,10.27
2023-01-13T09:13:51.257Z,11.27
2023-01-13T09:16:18.682Z,11.18
2023-01-13T09:18:47.037Z,11.22
2023-01-13T09:21:14.444Z,11.00
2023-01-13T09:23:41.287Z,10.85
2023-01-13T09:26:09.513Z,11.38
2023-01-13T09:28:36.283Z,12.76
2023-01-13T09:31:03.353Z,13.62
2023-01-13T09:33:48.833Z,12.28
2023-01-13T09:36:15.771Z,11.61
2023-01-13T09:38:42.634Z,11.12
2023-01-13T09:41:39.092Z,10.49
2023-01-13T09:44:10.515Z,9.90
2023-01-13T09:46:47.736Z,9.55
2023-01-13T09:49:20.941Z,9.37
2023-01-13T09:52:35.355Z,9.17
2023-01-13T09:55:21.684Z,8.89
2023-01-13T09:57:48.769Z,8.64
2023-01-13T10:00:23.466Z,8.49
2023-01-13T10:02:56.224Z,8.27
2023-01-13T10:05:34.166Z,8.11
2023-01-13T10:08:11.664Z,8.10
2023-01-13T10:10:43.524Z,7.97
2023-01-13T10:13:20.308Z,7.87
2023-01-13T10:16:11.728Z,7.80
2023-01-13T10:19:04.249Z,7.68
2023-01-13T10:21:50.025Z,7.58
2023-01-13T10:24:26.178Z,7.43
2023-01-13T10:27:03.313Z,7.35
2023-01-13T10:29:31.281Z,7.26
2023-01-13T10:31:59.730Z,7.17
2023-01-13T10:34:28.441Z,7.08
2023-01-13T10:37:06.207Z,7.06
2023-01-13T10:39:44.469Z,7.05
2023-01-13T10:42:19.545Z,6.92
2023-01-13T10:44:52.050Z,6.92
2023-01-13T10:47:31.453Z,6.96
2023-01-13T10:50:13.454Z,7.01
2023-01-13T10:52:55.325Z,7.08
2023-01-13T10:55:37.340Z,7.06
2023-01-13T10:58:16.307Z,6.99
2023-01-13T11:00:43.456Z,7.01
2023-01-13T11:03:20.212Z,7.03
2023-01-13T11:05:56.983Z,7.04
2023-01-13T11:08:46.480Z,7.05
2023-01-13T11:11:38.261Z,7.06
2023-01-13T11:14:34.103Z,7.03
2023-01-13T11:17:25.954Z,6.95
2023-01-13T11:20:12.705Z,6.90
2023-01-13T11:22:44.776Z,6.85
2023-01-13T11:25:17.434Z,6.86
2023-01-13T11:27:58.552Z,6.83
2023-01-13T11:30:41.317Z,6.85
2023-01-13T11:33:14.251Z,6.87
2023-01-13T11:36:23.533Z,6.87
2023-01-13T11:38:55.803Z,6.80
2023-01-13T11:41:44.573Z,6.79
2023-01-13T11:44:32.538Z,6.81
2023-01-13T11:46:59.488Z,6.66
2023-01-13T11:49:29.129Z,6.31
2023-01-13T11:52:11.612Z,6.20
2023-01-13T11:54:41.308Z,6.21
2023-01-13T11:57:26.972Z,6.12
2023-01-13T12:00:16.557Z,6.18
2023-01-13T12:03:01.003Z,6.18
2023-01-13T12:05:40.624Z,6.16
2023-01-13T12:08:38.801Z,6.05
2023-01-13T12:11:16.660Z,5.99
2023-01-13T12:13:46.803Z,6.03
2023-01-13T12:16:23.934Z,6.17
2023-01-13T12:19:07.719Z,6.34
2023-01-13T12:22:09.982Z,6.40
2023-01-13T12:24:46.204Z,6.56
2023-01-13T12:27:23.893Z,6.57
2023-01-13T12:29:55.445Z,6.57
2023-01-13T12:32:36.852Z,6.70
2023-01-13T12:35:08.406Z,6.78
2023-01-13T12:38:01.762Z,6.80
2023-01-13T12:40:48.151Z,6.89
2023-01-13T12:43:38.771Z,6.91
2023-01-13T12:46:24.633Z,6.93
2023-01-13T12:48:54.999Z,7.01
2023-01-13T12:51:33.437Z,7.03
2023-01-13T12:54:01.988Z,7.00
2023-01-13T12:56:29.452Z,6.95
2023-01-13T12:59:21.624Z,6.90
2023-01-13T13:02:13.188Z,6.89
2023-01-13T13:04:49.763Z,6.95
2023-01-13T13:07:40.951Z,6.87
2023-01-13T13:10:15.957Z,6.88
2023-01-13T13:13:01.486Z,6.95
2023-01-13T13:15:30.711Z,6.94
2023-01-13T13:18:03.746Z,6.96
2023-01-13T13:20:55.525Z,6.93
2023-01-13T13:23:44.392Z,6.91
2023-01-13T13:26:26.537Z,6.93
2023-01-13T13:29:02.535Z,6.89
2023-01-13T13:31:29.410Z,6.82
2023-01-13T13:34:53.744Z,6.74
2023-01-13T13:38:14.576Z,6.74
2023-01-13T13:41:05.562Z,6.79
2023-01-13T13:44:03.439Z,6.74
2023-01-13T13:46:47.736Z,6.74
2023-01-13T13:49:18.679Z,6.75
2023-01-13T13:51:49.460Z,6.76
2023-01-13T13:54:19.925Z,6.80
2023-01-13T13:56:48.100Z,6.73
2023-01-13T13:59:19.306Z,6.71
2023-01-13T14:01:46.759Z,6.66
2023-01-13T14:04:20.906Z,6.69
2023-01-13T14:06:59.080Z,6.64
2023-01-13T14:09:28.820Z,6.57
2023-01-13T14:12:04.220Z,6.47
2023-01-13T14:14:31.136Z,6.38
2023-01-13T14:16:58.968Z,6.21
2023-01-13T14:19:32.874Z,6.12
2023-01-13T14:22:02.242Z,6.08
2023-01-13T14:24:30.725Z,6.07
2023-01-13T14:27:14.875Z,6.06
2023-01-13T14:29:42.072Z,6.04
2023-01-13T14:32:10.794Z,6.05
2023-01-13T14:34:38.994Z,6.01
2023-01-13T14:37:23.274Z,6.03
2023-01-13T14:39:50.580Z,6.00
2023-01-13T14:42:18.024Z,5.99
2023-01-13T14:44:47.044Z,6.03
2023-01-13T14:47:21.584Z,5.90
2023-01-13T14:49:57.049Z,5.67
2023-01-13T14:52:25.258Z,5.64
2023-01-13T14:54:55.604Z,5.51
2023-01-13T14:57:29.071Z,5.41
2023-01-13T15:00:14.343Z,5.33
2023-01-13T15:02:56.414Z,5.29
2023-01-13T15:05:26.105Z,5.28
2023-01-13T15:08:01.462Z,5.17
2023-01-13T15:10:29.565Z,5.09
2023-01-13T15:12:58.561Z,4.96
2023-01-13T15:15:33.711Z,4.94
2023-01-13T15:18:02.234Z,4.98
2023-01-13T15:20:29.568Z,5.00
2023-01-13T15:22:58.931Z,4.97
2023-01-13T15:25:26.054Z,4.91
2023-01-13T15:27:55.515Z,4.97
2023-01-13T15:30:25.973Z,4.93
2023-01-13T15:32:59.922Z,4.88
2023-01-13T15:35:29.774Z,4.86
2023-01-13T15:37:57.479Z,4.74
2023-01-13T15:40:29.330Z,4.74
2023-01-13T15:43:14.901Z,4.69
2023-01-13T15:46:00.928Z,4.70
2023-01-13T15:48:32.301Z,4.69
2023-01-13T15:51:00.174Z,4.64
2023-01-13T15:53:28.394Z,4.60
2023-01-13T15:55:57.247Z,4.61
2023-01-13T15:58:29.807Z,4.55
2023-01-13T16:00:57.009Z,4.50
2023-01-13T16:03:24.360Z,4.51
2023-01-13T16:05:51.761Z,4.52
2023-01-13T16:08:20.214Z,4.52
2023-01-13T16:10:48.011Z,4.58
2023-01-13T16:13:15.970Z,4.58
2023-01-13T16:15:47.649Z,4.56
2023-01-13T16:18:21.151Z,4.57
2023-01-13T16:20:53.187Z,4.58
2023-01-13T16:23:20.776Z,4.64
2023-01-13T16:25:48.069Z,4.67
2023-01-13T16:28:24.146Z,4.74
2023-01-13T16:30:51.677Z,4.82
2023-01-13T16:33:18.888Z,4.87
2023-01-13T16:36:11.791Z,4.87
2023-01-13T16:38:33.070Z,4.87
2023-01-13T16:41:03.278Z,4.86
2023-01-13T16:43:30.326Z,4.77
2023-01-13T16:45:57.583Z,4.79
2023-01-13T16:48:24.542Z,4.80
2023-01-13T16:50:51.663Z,4.79
2023-01-13T16:53:18.917Z,4.79
2023-01-13T16:55:46.199Z,4.85
2023-01-13T16:58:21.280Z,4.85
2023-01-13T17:00:48.429Z,4.83
2023-01-13T17:03:18.306Z,4.82
2023-01-13T17:05:49.880Z,4.77
2023-01-13T17:08:18.318Z,4.72
2023-01-13T17:10:48.571Z,4.68
2023-01-13T17:13:16.989Z,4.67
2023-01-13T17:15:45.823Z,4.66
2023-01-13T17:18:13.798Z,4.70
2023-01-13T17:20:43.149Z,4.75
2023-01-13T17:23:12.688Z,4.77
2023-01-13T17:25:39.845Z,4.86
2023-01-13T17:28:07.157Z,4.98
2023-01-13T17:30:37.035Z,5.07
2023-01-13T17:33:06.612Z,5.11
2023-01-13T17:35:33.887Z,5.13
2023-01-13T17:38:02.155Z,5.16
2023-01-13T17:40:31.231Z,5.13
2023-01-13T17:42:58.411Z,5.04
2023-01-13T17:45:25.537Z,5.04
2023-01-13T17:47:57.986Z,5.03
2023-01-13T17:50:27.791Z,5.06
2023-01-13T17:52:56.111Z,5.11
2023-01-13T17:55:23.068Z,5.14
2023-01-13T17:57:50.284Z,5.06
2023-01-13T18:00:17.752Z,5.03
2023-01-13T18:02:44.927Z,5.05
2023-01-13T18:05:12.909Z,5.10
2023-01-13T18:07:40.028Z,5.14
2023-01-13T18:10:07.406Z,5.23
2023-01-13T18:12:38.065Z,5.24
2023-01-13T18:15:05.765Z,5.26
2023-01-13T18:17:32.921Z,5.29
2023-01-13T18:20:18.255Z,5.31
2023-01-13T18:23:03.778Z,5.34
2023-01-13T18:25:49.304Z,5.24
2023-01-13T18:28:16.337Z,5.19
2023-01-13T18:30:43.361Z,5.12
2023-01-13T18:33:10.273Z,5.16
2023-01-13T18:35:40.293Z,5.19
2023-01-13T18:38:08.359Z,5.19
2023-01-13T18:40:35.541Z,5.20
2023-01-13T18:43:02.559Z,5.21
2023-01-13T18:45:31.825Z,5.14
2023-01-13T18:48:01.213Z,5.19
2023-01-13T18:50:28.516Z,5.13
2023-01-13T18:52:58.348Z,5.11
2023-01-13T18:55:25.818Z,5.13
2023-01-13T18:57:53.733Z,5.18
2023-01-13T19:00:22.293Z,5.23
2023-01-13T19:05:34.618Z,5.21
2023-01-13T19:08:02.138Z,5.16
2023-01-13T19:10:32.298Z,5.13
2023-01-13T19:12:59.600Z,5.06
2023-01-13T19:15:31.382Z,5.06
2023-01-13T19:17:58.562Z,5.07
2023-01-13T19:20:25.471Z,5.08
2023-01-13T19:22:54.650Z,5.11
2023-01-13T19:25:21.887Z,5.09
2023-01-13T19:27:48.901Z,5.06
2023-01-13T19:30:15.933Z,5.04
2023-01-13T19:32:43.009Z,4.98
2023-01-13T19:35:12.286Z,4.85
2023-01-13T19:37:40.447Z,4.79
2023-01-13T19:40:09.514Z,4.69
2023-01-13T19:42:57.640Z,4.51
2023-01-13T19:45:27.450Z,4.25
2023-01-13T19:47:58.457Z,4.12
2023-01-13T19:50:25.628Z,4.09
2023-01-13T19:52:52.576Z,4.08
2023-01-13T19:55:19.960Z,4.13
2023-01-13T19:57:47.100Z,4.17
2023-01-13T20:00:18.453Z,4.19
2023-01-13T20:02:49.667Z,4.11
2023-01-13T20:05:21.439Z,4.04
2023-01-13T20:10:33.313Z,3.97
2023-01-13T20:13:00.722Z,3.93
2023-01-13T20:15:28.280Z,3.88
2023-01-13T20:17:55.940Z,3.76
2023-01-13T20:20:22.957Z,3.59
2023-01-13T20:22:50.225Z,3.51
2023-01-13T20:25:17.776Z,3.49
2023-01-13T20:27:46.318Z,3.58
2023-01-13T20:30:14.573Z,3.61
2023-01-13T20:32:42.548Z,3.66
2023-01-13T20:35:10.407Z,3.73
2023-01-13T20:37:38.357Z,3.68
2023-01-13T20:40:06.558Z,3.60
2023-01-13T20:42:45.518Z,3.58
2023-01-13T20:45:19.917Z,3.60
2023-01-13T20:47:46.798Z,3.66
2023-01-13T20:50:16.449Z,3.69
2023-01-13T20:52:43.695Z,3.70
2023-01-13T20:55:11.570Z,3.58
2023-01-13T20:57:39.907Z,3.55
2023-01-13T21:00:07.614Z,3.61
2023-01-13T21:02:34.705Z,3.65
2023-01-13T21:05:01.881Z,3.63
2023-01-13T21:07:28.954Z,3.61
2023-01-13T21:09:57.569Z,3.69
2023-01-13T21:12:42.956Z,3.61
2023-01-13T21:15:17.667Z,3.45
2023-01-13T21:18:07.165Z,3.27
2023-01-13T21:20:35.859Z,3.12
2023-01-13T21:23:03.966Z,3.06
2023-01-13T21:25:35.190Z,3.04
2023-01-13T21:28:06.062Z,3.04
2023-01-13T21:30:33.978Z,3.07
2023-01-13T21:33:01.359Z,3.02
2023-01-13T21:35:28.420Z,2.92
2023-01-13T21:37:57.309Z,2.84
2023-01-13T21:40:24.249Z,2.84
2023-01-13T21:43:09.847Z,2.96
2023-01-13T21:45:57.946Z,2.99
2023-01-13T21:48:24.987Z,2.93
2023-01-13T21:50:51.836Z,2.92
2023-01-13T21:53:18.778Z,2.98
2023-01-13T21:55:50.672Z,2.92
2023-01-13T21:58:18.325Z,2.89
2023-01-13T22:00:45.416Z,2.80
2023-01-13T22:03:14.978Z,2.84
2023-01-13T22:05:42.080Z,2.91
2023-01-13T22:08:11.921Z,2.99
2023-01-13T22:10:57.783Z,3.04
2023-01-13T22:13:44.190Z,3.14
2023-01-13T22:16:11.204Z,3.17
2023-01-13T22:18:38.607Z,3.15
2023-01-13T22:21:05.708Z,3.09
2023-01-13T22:23:32.607Z,3.13
2023-01-13T22:26:04.294Z,3.21
2023-01-13T22:28:40.228Z,3.25
2023-01-13T22:31:15.916Z,3.23
2023-01-13T22:33:43.335Z,3.20
2023-01-13T22:36:10.791Z,3.20
2023-01-13T22:38:37.688Z,3.19
2023-01-13T22:41:07.534Z,3.26
2023-01-13T22:43:35.369Z,3.28
2023-01-13T22:46:06.927Z,3.28
2023-01-13T22:48:34.309Z,3.22
2023-01-13T22:51:08.989Z,3.21
2023-01-13T22:53:36.690Z,3.19
2023-01-13T22:56:04.117Z,3.15
2023-01-13T22:58:31.143Z,2.98
2023-01-13T23:01:16.875Z,2.89
2023-01-13T23:03:47.647Z,2.89
2023-01-13T23:06:15.810Z,2.90
2023-01-13T23:08:42.866Z,2.88
2023-01-13T23:11:12.485Z,2.87
2023-01-13T23:13:42.478Z,2.75
2023-01-13T23:16:12.393Z,2.71
2023-01-13T23:18:42.787Z,2.76
2023-01-13T23:21:11.967Z,2.67
2023-01-13T23:23:39.517Z,2.70
2023-01-13T23:26:07.368Z,2.80
2023-01-13T23:28:36.044Z,2.74
2023-01-13T23:31:12.182Z,2.67
2023-01-13T23:33:41.395Z,2.72
2023-01-13T23:36:09.510Z,2.80
2023-01-13T23:38:36.621Z,2.81
2023-01-13T23:41:08.318Z,2.82
2023-01-13T23:43:35.776Z,2.77
2023-01-13T23:46:08.701Z,2.85
2023-01-13T23:48:36.739Z,2.94
2023-01-13T23:51:06.572Z,3.02
2023-01-13T23:53:39.183Z,3.10
2023-01-13T23:56:09.010Z,3.13
2023-01-13T23:58:36.020Z,3.15
